createdAt,value
2022-10-18T00:01:26.891Z,4
2022-10-18T00:06:08.191Z,4
2022-10-18T00:10:49.506Z,4
2022-10-18T00:15:31.812Z,4
2022-10-18T00:20:14.027Z,9
2022-10-18T00:24:56.337Z,9
2022-10-18T00:29:38.645Z,9
2022-10-18T00:34:20.851Z,9
2022-10-18T00:39:03.165Z,9
2022-10-18T00:43:45.474Z,9
2022-10-18T00:48:27.788Z,9
2022-10-18T00:53:09.999Z,9
2022-10-18T00:57:51.312Z,9
2022-10-18T01:02:33.628Z,9
2022-10-18T01:07:15.929Z,9
2022-10-18T01:11:58.144Z,9
2022-10-18T01:16:40.463Z,9
2022-10-18T01:21:22.760Z,9
2022-10-18T01:26:04.980Z,9
2022-10-18T01:30:47.289Z,9
2022-10-18T01:35:29.594Z,9
2022-10-18T01:40:11.806Z,9
2022-10-18T01:44:53.116Z,9
2022-10-18T01:49:34.422Z,9
2022-10-18T01:54:16.734Z,9
2022-10-18T01:58:59.049Z,9
2022-10-18T02:03:41.264Z,9
2022-10-18T02:08:23.568Z,9
2022-10-18T02:13:05.882Z,9
2022-10-18T02:17:48.094Z,9
2022-10-18T02:22:30.407Z,9
2022-10-18T02:27:12.711Z,9
2022-10-18T02:31:54.929Z,9
2022-10-18T02:36:37.239Z,9
2022-10-18T02:41:19.550Z,9
2022-10-18T02:46:01.861Z,9
2022-10-18T02:50:43.070Z,9
2022-10-18T02:55:25.380Z,9
2022-10-18T03:00:07.685Z,9
2022-10-18T03:04:49.930Z,9
2022-10-18T03:09:32.206Z,9
2022-10-18T03:14:14.518Z,9
2022-10-18T03:18:56.834Z,9
2022-10-18T03:23:38.145Z,9
2022-10-18T03:28:19.352Z,9
2022-10-18T03:33:00.664Z,9
2022-10-18T03:37:41.969Z,9
2022-10-18T03:42:24.283Z,9
2022-10-18T03:47:06.593Z,9
2022-10-18T03:51:47.901Z,12
2022-10-18T03:56:29.216Z,12
2022-10-18T04:01:11.420Z,12
2022-10-18T04:05:53.735Z,12
2022-10-18T04:10:36.043Z,12
2022-10-18T04:15:18.252Z,12
2022-10-18T04:20:00.573Z,12
2022-10-18T04:24:42.878Z,12
2022-10-18T04:29:25.085Z,12
2022-10-18T04:34:07.401Z,12
2022-10-18T04:38:49.708Z,12
2022-10-18T04:43:31.956Z,12
2022-10-18T04:48:14.233Z,12
2022-10-18T04:52:56.604Z,12
2022-10-18T04:57:37.847Z,12
2022-10-18T05:02:20.063Z,12
2022-10-18T05:07:02.377Z,15
2022-10-18T05:11:44.685Z,18
2022-10-18T05:16:26.893Z,24
2022-10-18T05:21:09.206Z,19
2022-10-18T05:25:51.521Z,64
2022-10-18T05:30:32.827Z,110
2022-10-18T05:35:14.139Z,165
2022-10-18T05:39:56.376Z,270
2022-10-18T05:44:37.655Z,410
2022-10-18T05:49:18.967Z,631
2022-10-18T05:54:01.289Z,960
2022-10-18T05:58:43.600Z,1198
2022-10-18T06:03:25.802Z,1285
2022-10-18T06:08:08.108Z,1519
2022-10-18T06:12:50.435Z,1686
2022-10-18T06:17:32.630Z,1983
2022-10-18T06:22:14.942Z,2532
2022-10-18T06:26:57.344Z,3231
2022-10-18T06:31:39.471Z,3536
2022-10-18T06:36:21.782Z,3936
2022-10-18T06:41:04.087Z,4768
2022-10-18T06:45:46.298Z,3518
2022-10-18T06:50:27.610Z,3372
2022-10-18T06:55:09.920Z,3221
2022-10-18T06:59:52.241Z,3561
2022-10-18T07:04:34.493Z,3571
2022-10-18T07:09:16.749Z,3702
2022-10-18T07:13:59.062Z,3876
2022-10-18T07:18:41.274Z,5230
2022-10-18T07:23:22.585Z,7493
2022-10-18T07:28:03.891Z,9545
2022-10-18T07:32:46.209Z,8726
2022-10-18T07:37:28.513Z,9077
2022-10-18T07:42:09.825Z,9166
2022-10-18T07:46:51.130Z,7378
2022-10-18T07:51:33.351Z,7112
2022-10-18T07:56:15.657Z,8458
2022-10-18T08:00:57.985Z,8804
2022-10-18T08:05:40.177Z,11103
2022-10-18T08:10:22.490Z,13436
2022-10-18T08:15:04.817Z,13221
2022-10-18T08:19:47.010Z,13289
2022-10-18T08:24:29.320Z,12504
2022-10-18T08:29:11.632Z,11933
2022-10-18T08:33:53.987Z,9793
2022-10-18T08:38:36.306Z,10614
2022-10-18T08:43:18.481Z,11404
2022-10-18T08:47:59.824Z,11980
2022-10-18T08:52:42.106Z,17230
2022-10-18T08:57:24.294Z,14678
2022-10-18T09:02:06.763Z,12344
2022-10-18T09:06:48.863Z,14638
2022-10-18T09:11:31.132Z,24891
2022-10-18T09:16:13.514Z,14627
2022-10-18T09:20:54.771Z,18023
2022-10-18T09:25:36.112Z,32477
2022-10-18T09:30:18.377Z,18032
2022-10-18T09:35:00.639Z,32849
2022-10-18T09:39:42.833Z,44981
2022-10-18T09:44:25.131Z,47351
2022-10-18T09:49:07.418Z,45778
2022-10-18T09:53:49.640Z,44920
2022-10-18T09:58:31.977Z,42844
2022-10-18T10:03:14.252Z,46722
2022-10-18T10:07:56.519Z,58710
2022-10-18T10:12:38.816Z,57843
2022-10-18T10:17:21.207Z,52135
2022-10-18T10:22:03.400Z,45002
2022-10-18T10:26:44.646Z,55239
2022-10-18T10:31:26.925Z,58169
2022-10-18T10:36:09.243Z,54282
2022-10-18T10:40:51.464Z,16999
2022-10-18T10:45:33.758Z,48265
2022-10-18T10:50:16.175Z,41394
2022-10-18T10:54:58.423Z,29528
2022-10-18T10:59:39.751Z,26024
2022-10-18T11:04:20.898Z,20325
2022-10-18T11:09:02.220Z,17850
2022-10-18T11:13:43.519Z,17066
2022-10-18T11:18:25.831Z,15762
2022-10-18T11:23:07.146Z,8736
2022-10-18T11:27:48.451Z,4762
2022-10-18T11:32:30.663Z,7064
2022-10-18T11:37:12.977Z,14155
2022-10-18T11:41:55.286Z,17608
2022-10-18T11:46:37.493Z,14969
2022-10-18T11:51:19.810Z,16307
2022-10-18T11:56:02.123Z,33251
2022-10-18T12:00:44.378Z,22211
2022-10-18T12:05:26.646Z,16028
2022-10-18T12:10:08.957Z,12014
2022-10-18T12:14:51.165Z,10331
2022-10-18T12:19:33.539Z,9894
2022-10-18T12:24:15.785Z,14706
2022-10-18T12:28:57.093Z,6297
2022-10-18T12:33:39.309Z,3600
2022-10-18T12:38:21.647Z,3159
2022-10-18T12:43:03.933Z,2943
2022-10-18T12:47:46.142Z,5001
2022-10-18T12:52:28.464Z,3858
2022-10-18T12:57:10.771Z,2959
2022-10-18T13:01:52.129Z,3356
2022-10-18T13:06:33.382Z,4806
2022-10-18T13:11:15.598Z,8443
2022-10-18T13:15:56.911Z,8561
2022-10-18T13:20:38.226Z,14792
2022-10-18T13:25:20.566Z,12931
2022-10-18T13:30:02.748Z,10016
2022-10-18T13:34:45.063Z,12284
2022-10-18T13:39:27.365Z,11477
2022-10-18T13:44:09.567Z,17496
2022-10-18T13:48:51.891Z,13048
2022-10-18T13:53:34.199Z,11577
2022-10-18T13:58:16.408Z,12380
2022-10-18T14:02:58.718Z,4283
2022-10-18T14:07:41.023Z,2790
2022-10-18T14:12:23.312Z,3603
2022-10-18T14:17:05.559Z,3462
2022-10-18T14:21:46.861Z,6277
2022-10-18T14:26:29.297Z,7275
2022-10-18T14:31:11.383Z,6427
2022-10-18T14:35:53.696Z,8525
2022-10-18T14:40:36.024Z,9450
2022-10-18T14:45:18.213Z,8578
2022-10-18T14:50:00.528Z,7546
2022-10-18T14:54:41.865Z,7926
2022-10-18T14:59:23.147Z,8407
2022-10-18T15:04:05.433Z,7668
2022-10-18T15:08:46.676Z,7323
2022-10-18T15:13:28.016Z,5890
2022-10-18T15:18:10.299Z,5985
2022-10-18T15:22:52.601Z,4889
2022-10-18T15:27:34.812Z,4033
2022-10-18T15:32:17.132Z,3307
2022-10-18T15:36:59.439Z,3058
2022-10-18T15:41:41.647Z,2819
2022-10-18T15:46:23.973Z,2069
2022-10-18T15:51:06.268Z,1846
2022-10-18T15:55:48.477Z,1656
2022-10-18T16:00:30.787Z,1077
2022-10-18T16:05:13.107Z,910
2022-10-18T16:09:55.322Z,540
2022-10-18T16:14:36.614Z,269
2022-10-18T16:19:18.943Z,158
2022-10-18T16:24:01.242Z,96
2022-10-18T16:28:43.455Z,62
2022-10-18T16:33:25.767Z,27
2022-10-18T16:38:08.074Z,13
2022-10-18T16:42:49.410Z,9
2022-10-18T16:47:30.696Z,9
2022-10-18T16:52:12.004Z,9
2022-10-18T16:56:54.218Z,9
2022-10-18T17:01:36.528Z,9
2022-10-18T17:06:17.843Z,9
2022-10-18T17:10:59.134Z,12
2022-10-18T17:15:41.439Z,12
2022-10-18T17:20:23.651Z,9
2022-10-18T17:25:05.960Z,9
2022-10-18T17:29:48.274Z,9
2022-10-18T17:34:30.570Z,9
2022-10-18T17:39:12.799Z,9
2022-10-18T17:43:55.109Z,9
2022-10-18T17:48:37.315Z,9
2022-10-18T17:53:19.714Z,9
2022-10-18T17:58:01.960Z,9
2022-10-18T18:02:44.257Z,9
2022-10-18T18:07:26.464Z,9
2022-10-18T18:12:07.779Z,9
2022-10-18T18:16:50.103Z,9
2022-10-18T18:21:32.298Z,9
2022-10-18T18:26:14.611Z,9
2022-10-18T18:30:56.938Z,9
2022-10-18T18:35:39.138Z,9
2022-10-18T18:40:21.443Z,9
2022-10-18T18:45:02.757Z,9
2022-10-18T18:49:44.064Z,9
2022-10-18T18:54:26.377Z,9
2022-10-18T18:59:08.606Z,4
2022-10-18T19:03:50.897Z,4
2022-10-18T19:08:33.205Z,4
2022-10-18T19:13:15.419Z,4
2022-10-18T19:17:57.730Z,4
2022-10-18T19:22:40.052Z,4
2022-10-18T19:27:22.267Z,4
2022-10-18T19:32:04.576Z,4
2022-10-18T19:36:46.896Z,4
2022-10-18T19:41:29.092Z,4
2022-10-18T19:46:11.435Z,4
2022-10-18T19:50:52.711Z,4
2022-10-18T19:55:35.067Z,4
2022-10-18T20:00:17.281Z,4
2022-10-18T20:04:59.583Z,4
2022-10-18T20:09:41.966Z,4
2022-10-18T20:14:24.067Z,4
2022-10-18T20:19:06.402Z,4
2022-10-18T20:23:47.738Z,4
2022-10-18T20:28:28.991Z,4
2022-10-18T20:33:10.350Z,4
2022-10-18T20:37:51.612Z,4
2022-10-18T20:42:33.838Z,4
2022-10-18T20:47:15.137Z,4
2022-10-18T20:51:56.544Z,4
2022-10-18T20:56:38.792Z,4
2022-10-18T21:01:21.076Z,4
2022-10-18T21:06:03.301Z,4
2022-10-18T21:10:45.595Z,4
2022-10-18T21:15:27.928Z,4
2022-10-18T21:20:10.124Z,4
2022-10-18T21:24:52.472Z,4
2022-10-18T21:29:34.777Z,4
2022-10-18T21:34:16.945Z,4
2022-10-18T21:38:59.286Z,9
2022-10-18T21:43:41.577Z,4
2022-10-18T21:48:23.792Z,9
2022-10-18T21:53:05.092Z,9
2022-10-18T21:57:47.411Z,9
2022-10-18T22:02:29.713Z,9
2022-10-18T22:07:11.930Z,9
2022-10-18T22:11:54.238Z,4
2022-10-18T22:16:36.558Z,4
2022-10-18T22:21:18.760Z,4
2022-10-18T22:26:00.072Z,4
2022-10-18T22:30:41.376Z,4
2022-10-18T22:35:23.690Z,9
2022-10-18T22:40:05.100Z,4
2022-10-18T22:44:46.327Z,4
2022-10-18T22:49:28.522Z,4
2022-10-18T22:54:10.847Z,4
2022-10-18T22:58:53.141Z,9
2022-10-18T23:03:35.348Z,9
2022-10-18T23:08:17.664Z,9
2022-10-18T23:12:59.974Z,9
2022-10-18T23:17:42.193Z,9
2022-10-18T23:22:24.497Z,9
2022-10-18T23:27:06.807Z,9
2022-10-18T23:31:49.113Z,9
2022-10-18T23:36:31.335Z,9
2022-10-18T23:41:13.639Z,9
2022-10-18T23:45:54.956Z,9
2022-10-18T23:50:37.160Z,9
2022-10-18T23:55:19.473Z,9
